SWA3997 KLAS-KBNA
Flight info
| Callsign | SWA3997 |
|---|---|
| Flight time | 3h 3m |
| Altitude | 39000 |
| Route | GIDGT3 TUKRR PGA TAHIB ALS ZIGEE DRAWL JAMEY EOS FLP LOPPY CHSNE3 |
| Aircraft | B737/M-SDE2E3FGHIRWXY/LB1 |
Departure
| Time | 2026-05-07 06:57 |
|---|---|
| Airport | Harry Reid International Airport (KLAS) |
Arrival
| Time | 2026-05-07 10:01 |
|---|---|
| Airport | Nashville International Airport (KBNA) |
| Time | Latitude | Longitude | Altitude | Speed | Heading |
|---|---|---|---|---|---|
| 2026-05-07 06:23 | 36.08314 | -115.15063 | 2096 ft | 0 kts | 246° |
| 2026-05-07 06:47 | 36.08321 | -115.15041 | 2096 ft | 4 kts | 255° |
| 2026-05-07 06:48 | 36.08323 | -115.15010 | 2096 ft | 4 kts | 300° |
| 2026-05-07 06:48 | 36.08307 | -115.14991 | 2096 ft | 4 kts | 322° |
| 2026-05-07 06:48 | 36.08286 | -115.14971 | 2096 ft | 4 kts | 322° |
| 2026-05-07 06:48 | 36.08265 | -115.14951 | 2096 ft | 4 kts | 322° |
| 2026-05-07 06:49 | 36.08243 | -115.14931 | 2096 ft | 4 kts | 328° |
| 2026-05-07 06:49 | 36.08224 | -115.14919 | 2096 ft | 4 kts | 335° |
| 2026-05-07 06:49 | 36.08213 | -115.14912 | 2096 ft | 1 kts | 335° |
| 2026-05-07 06:51 | 36.08217 | -115.14916 | 2096 ft | 2 kts | 322° |
| 2026-05-07 06:51 | 36.08224 | -115.14941 | 2096 ft | 5 kts | 270° |
| 2026-05-07 06:51 | 36.08194 | -115.14980 | 2096 ft | 8 kts | 212° |
| 2026-05-07 06:52 | 36.08143 | -115.14955 | 2096 ft | 10 kts | 143° |
| 2026-05-07 06:52 | 36.08067 | -115.14903 | 2096 ft | 13 kts | 157° |
| 2026-05-07 06:52 | 36.07975 | -115.14853 | 2096 ft | 16 kts | 156° |
| 2026-05-07 06:52 | 36.07870 | -115.14798 | 2096 ft | 17 kts | 137° |
| 2026-05-07 06:53 | 36.07849 | -115.14661 | 2096 ft | 16 kts | 94° |
| 2026-05-07 06:53 | 36.07839 | -115.14524 | 2095 ft | 16 kts | 95° |
| 2026-05-07 06:53 | 36.07830 | -115.14379 | 2095 ft | 18 kts | 94° |
| 2026-05-07 06:53 | 36.07827 | -115.14216 | 2094 ft | 21 kts | 90° |
| 2026-05-07 06:54 | 36.07828 | -115.14022 | 2092 ft | 24 kts | 90° |
| 2026-05-07 06:54 | 36.07828 | -115.13802 | 2092 ft | 27 kts | 90° |
| 2026-05-07 06:54 | 36.07828 | -115.13561 | 2091 ft | 29 kts | 90° |
| 2026-05-07 06:54 | 36.07828 | -115.13297 | 2087 ft | 32 kts | 90° |
| 2026-05-07 06:55 | 36.07829 | -115.13017 | 2077 ft | 33 kts | 90° |
| 2026-05-07 06:55 | 36.07829 | -115.12727 | 2065 ft | 34 kts | 90° |
| 2026-05-07 06:55 | 36.07829 | -115.12436 | 2056 ft | 34 kts | 90° |
| 2026-05-07 06:55 | 36.07826 | -115.12280 | 2053 ft | 23 kts | 103° |
| 2026-05-07 06:56 | 36.07731 | -115.12134 | 2050 ft | 19 kts | 153° |
| 2026-05-07 06:56 | 36.07645 | -115.12152 | 2047 ft | 8 kts | 252° |
| 2026-05-07 06:56 | 36.07642 | -115.12223 | 2049 ft | 9 kts | 270° |
| 2026-05-07 06:56 | 36.07641 | -115.12494 | 2057 ft | 65 kts | 270° |
| 2026-05-07 06:57 | 36.07641 | -115.13321 | 2086 ft | 126 kts | 270° |
| 2026-05-07 06:57 | 36.07643 | -115.14610 | 2189 ft | 166 kts | 270° |
| 2026-05-07 06:57 | 36.07643 | -115.16029 | 2907 ft | 164 kts | 268° |
| 2026-05-07 06:57 | 36.07639 | -115.17465 | 3509 ft | 174 kts | 269° |
| 2026-05-07 06:58 | 36.07639 | -115.19101 | 3774 ft | 205 kts | 269° |
| 2026-05-07 06:58 | 36.07639 | -115.20953 | 4115 ft | 223 kts | 269° |
| 2026-05-07 06:58 | 36.07640 | -115.22895 | 4735 ft | 228 kts | 269° |
| 2026-05-07 06:58 | 36.07643 | -115.24877 | 5494 ft | 232 kts | 270° |
| 2026-05-07 06:59 | 36.07897 | -115.26829 | 6351 ft | 232 kts | 297° |
| 2026-05-07 06:59 | 36.08936 | -115.28321 | 7020 ft | 244 kts | 328° |
| 2026-05-07 06:59 | 36.10588 | -115.29068 | 7623 ft | 256 kts | 346° |
| 2026-05-07 06:59 | 36.12328 | -115.29554 | 8436 ft | 261 kts | 348° |
| 2026-05-07 07:00 | 36.14140 | -115.29597 | 9302 ft | 266 kts | 14° |
| 2026-05-07 07:00 | 36.15804 | -115.28572 | 10092 ft | 278 kts | 39° |
| 2026-05-07 07:00 | 36.17059 | -115.26629 | 10414 ft | 305 kts | 57° |
| 2026-05-07 07:00 | 36.18027 | -115.24156 | 10735 ft | 331 kts | 67° |
| 2026-05-07 07:01 | 36.18837 | -115.21448 | 11487 ft | 339 kts | 68° |
| 2026-05-07 07:01 | 36.19575 | -115.18668 | 12464 ft | 342 kts | 76° |
| 2026-05-07 07:01 | 36.19722 | -115.15722 | 13471 ft | 344 kts | 87° |
| 2026-05-07 07:01 | 36.19703 | -115.12745 | 14388 ft | 348 kts | 88° |
| 2026-05-07 07:02 | 36.19673 | -115.09732 | 15293 ft | 352 kts | 87° |
| 2026-05-07 07:02 | 36.19648 | -115.06694 | 16223 ft | 354 kts | 87° |
| 2026-05-07 07:02 | 36.19631 | -115.03631 | 17107 ft | 357 kts | 87° |
| 2026-05-07 07:02 | 36.19620 | -115.00550 | 17938 ft | 360 kts | 86° |
| 2026-05-07 07:03 | 36.19614 | -114.97434 | 18745 ft | 364 kts | 86° |
| 2026-05-07 07:03 | 36.19611 | -114.94277 | 19518 ft | 369 kts | 86° |
| 2026-05-07 07:03 | 36.19609 | -114.91082 | 20252 ft | 374 kts | 86° |
| 2026-05-07 07:03 | 36.19607 | -114.87848 | 20985 ft | 378 kts | 86° |
| 2026-05-07 07:04 | 36.19604 | -114.84613 | 21662 ft | 382 kts | 86° |
| 2026-05-07 07:04 | 36.19597 | -114.81309 | 22298 ft | 387 kts | 86° |
| 2026-05-07 07:04 | 36.19593 | -114.77960 | 22935 ft | 391 kts | 86° |
| 2026-05-07 07:04 | 36.19588 | -114.74573 | 23582 ft | 395 kts | 86° |
| 2026-05-07 07:05 | 36.19579 | -114.71161 | 24209 ft | 398 kts | 86° |
| 2026-05-07 07:05 | 36.19570 | -114.67710 | 24798 ft | 402 kts | 86° |
| 2026-05-07 07:05 | 36.19561 | -114.64235 | 25380 ft | 406 kts | 86° |
| 2026-05-07 07:05 | 36.19552 | -114.60724 | 25979 ft | 408 kts | 86° |
| 2026-05-07 07:06 | 36.19544 | -114.57204 | 26536 ft | 411 kts | 86° |
| 2026-05-07 07:06 | 36.19535 | -114.53650 | 27099 ft | 413 kts | 86° |
| 2026-05-07 07:06 | 36.19523 | -114.50091 | 27684 ft | 414 kts | 86° |
| 2026-05-07 07:06 | 36.19510 | -114.46509 | 28170 ft | 418 kts | 86° |
| 2026-05-07 07:07 | 36.19498 | -114.42893 | 28647 ft | 421 kts | 86° |
| 2026-05-07 07:07 | 36.19485 | -114.39260 | 29142 ft | 423 kts | 86° |
| 2026-05-07 07:07 | 36.19471 | -114.35614 | 29646 ft | 425 kts | 86° |
| 2026-05-07 07:07 | 36.19456 | -114.31955 | 30112 ft | 427 kts | 86° |
| 2026-05-07 07:08 | 36.19438 | -114.28266 | 30537 ft | 429 kts | 86° |
| 2026-05-07 07:08 | 36.19421 | -114.24563 | 30890 ft | 433 kts | 85° |
| 2026-05-07 07:08 | 36.19611 | -114.20828 | 31047 ft | 438 kts | 80° |
| 2026-05-07 07:08 | 36.20037 | -114.17073 | 31286 ft | 442 kts | 78° |
| 2026-05-07 07:09 | 36.20537 | -114.13313 | 31704 ft | 442 kts | 77° |
| 2026-05-07 07:09 | 36.21049 | -114.09556 | 32123 ft | 443 kts | 77° |
| 2026-05-07 07:09 | 36.21546 | -114.05798 | 32514 ft | 443 kts | 78° |
| 2026-05-07 07:09 | 36.22026 | -114.02033 | 32935 ft | 442 kts | 78° |
| 2026-05-07 07:10 | 36.22486 | -113.98274 | 33355 ft | 441 kts | 78° |
| 2026-05-07 07:10 | 36.22935 | -113.94521 | 33766 ft | 440 kts | 78° |
| 2026-05-07 07:10 | 36.23376 | -113.90774 | 34200 ft | 439 kts | 78° |
| 2026-05-07 07:10 | 36.23814 | -113.87036 | 34569 ft | 438 kts | 78° |
| 2026-05-07 07:11 | 36.24253 | -113.83296 | 34884 ft | 439 kts | 78° |
| 2026-05-07 07:11 | 36.24690 | -113.79546 | 35166 ft | 440 kts | 78° |
| 2026-05-07 07:11 | 36.25125 | -113.75796 | 35480 ft | 440 kts | 78° |
| 2026-05-07 07:11 | 36.25559 | -113.72049 | 35817 ft | 439 kts | 78° |
| 2026-05-07 07:12 | 36.25993 | -113.68304 | 36102 ft | 439 kts | 78° |
| 2026-05-07 07:12 | 36.26427 | -113.64559 | 36358 ft | 440 kts | 78° |
| 2026-05-07 07:12 | 36.26861 | -113.60796 | 36592 ft | 441 kts | 79° |
| 2026-05-07 07:12 | 36.27295 | -113.57032 | 36858 ft | 441 kts | 79° |
| 2026-05-07 07:13 | 36.27725 | -113.53276 | 37251 ft | 438 kts | 79° |
| 2026-05-07 07:13 | 36.28143 | -113.49602 | 37649 ft | 434 kts | 79° |
| 2026-05-07 07:13 | 36.28568 | -113.45859 | 37995 ft | 432 kts | 79° |
| 2026-05-07 07:13 | 36.28981 | -113.42224 | 38223 ft | 432 kts | 79° |
| 2026-05-07 07:14 | 36.29402 | -113.38527 | 38371 ft | 435 kts | 79° |
| 2026-05-07 07:14 | 36.29825 | -113.34798 | 38443 ft | 439 kts | 79° |
| 2026-05-07 07:14 | 36.30251 | -113.31036 | 38546 ft | 442 kts | 79° |
| 2026-05-07 07:14 | 36.30674 | -113.27258 | 38726 ft | 443 kts | 79° |
| 2026-05-07 07:15 | 36.31104 | -113.23481 | 38955 ft | 442 kts | 77° |
| 2026-05-07 07:15 | 36.31966 | -113.19863 | 39080 ft | 438 kts | 64° |
| 2026-05-07 07:15 | 36.33197 | -113.16411 | 39196 ft | 440 kts | 63° |
| 2026-05-07 07:15 | 36.34465 | -113.12941 | 39194 ft | 442 kts | 63° |
| 2026-05-07 07:16 | 36.36983 | -113.06005 | 39196 ft | 440 kts | 64° |
| 2026-05-07 07:16 | 36.39446 | -112.99080 | 39196 ft | 437 kts | 64° |
| 2026-05-07 07:17 | 36.41871 | -112.92178 | 39243 ft | 435 kts | 64° |
| 2026-05-07 07:17 | 36.44281 | -112.85286 | 39252 ft | 435 kts | 64° |
| 2026-05-07 07:18 | 36.46694 | -112.78373 | 39248 ft | 436 kts | 64° |
| 2026-05-07 07:18 | 36.49111 | -112.71434 | 39253 ft | 439 kts | 64° |
| 2026-05-07 07:19 | 36.51538 | -112.64453 | 39238 ft | 441 kts | 64° |
| 2026-05-07 07:19 | 36.53973 | -112.57427 | 39238 ft | 443 kts | 64° |
| 2026-05-07 07:20 | 36.56412 | -112.50377 | 39230 ft | 445 kts | 64° |
| 2026-05-07 07:20 | 36.58857 | -112.43295 | 39230 ft | 446 kts | 65° |
| 2026-05-07 07:21 | 36.61299 | -112.36202 | 39229 ft | 446 kts | 65° |
| 2026-05-07 07:21 | 36.63734 | -112.29103 | 39224 ft | 445 kts | 65° |
| 2026-05-07 07:22 | 36.66164 | -112.22016 | 39230 ft | 445 kts | 65° |
| 2026-05-07 07:22 | 36.68586 | -112.14934 | 39225 ft | 444 kts | 65° |
| 2026-05-07 07:23 | 36.70997 | -112.07865 | 39227 ft | 443 kts | 65° |
| 2026-05-07 07:23 | 36.73403 | -112.00800 | 39224 ft | 443 kts | 65° |
| 2026-05-07 07:24 | 36.75783 | -111.93786 | 39225 ft | 442 kts | 65° |
| 2026-05-07 07:24 | 36.78175 | -111.86723 | 39226 ft | 442 kts | 65° |
| 2026-05-07 07:25 | 36.81760 | -111.76110 | 39207 ft | 443 kts | 65° |
| 2026-05-07 07:26 | 36.84156 | -111.69003 | 39209 ft | 444 kts | 65° |
| 2026-05-07 07:26 | 36.86610 | -111.61910 | 39187 ft | 445 kts | 63° |
| 2026-05-07 07:27 | 36.89280 | -111.54935 | 39189 ft | 446 kts | 62° |
| 2026-05-07 07:27 | 36.91920 | -111.47905 | 39183 ft | 447 kts | 65° |
| 2026-05-07 07:28 | 36.93480 | -111.40351 | 39178 ft | 454 kts | 83° |
| 2026-05-07 07:28 | 36.93910 | -111.32463 | 39180 ft | 456 kts | 84° |
| 2026-05-07 07:29 | 36.94277 | -111.24547 | 39183 ft | 456 kts | 84° |
| 2026-05-07 07:29 | 36.94681 | -111.16631 | 39189 ft | 456 kts | 84° |
| 2026-05-07 07:30 | 36.95108 | -111.08714 | 39193 ft | 457 kts | 84° |
| 2026-05-07 07:30 | 36.95537 | -111.00844 | 39196 ft | 457 kts | 84° |
| 2026-05-07 07:31 | 36.95964 | -110.92911 | 39198 ft | 457 kts | 84° |
| 2026-05-07 07:31 | 36.96384 | -110.84990 | 39202 ft | 457 kts | 84° |
| 2026-05-07 07:32 | 36.96799 | -110.77063 | 39202 ft | 456 kts | 84° |
| 2026-05-07 07:32 | 36.97208 | -110.69153 | 39214 ft | 456 kts | 84° |
| 2026-05-07 07:33 | 36.97611 | -110.61243 | 39203 ft | 456 kts | 84° |
| 2026-05-07 07:33 | 36.98006 | -110.53330 | 39200 ft | 456 kts | 84° |
| 2026-05-07 07:34 | 36.98398 | -110.45418 | 39203 ft | 455 kts | 84° |
| 2026-05-07 07:34 | 36.98784 | -110.37508 | 39215 ft | 456 kts | 84° |
| 2026-05-07 07:35 | 36.99167 | -110.29590 | 39217 ft | 456 kts | 84° |
| 2026-05-07 07:35 | 36.99545 | -110.21663 | 39213 ft | 456 kts | 84° |
| 2026-05-07 07:36 | 36.99917 | -110.13738 | 39211 ft | 457 kts | 84° |
| 2026-05-07 07:36 | 37.00283 | -110.05801 | 39216 ft | 457 kts | 84° |
| 2026-05-07 07:37 | 37.00645 | -109.97862 | 39221 ft | 457 kts | 84° |
| 2026-05-07 07:37 | 37.01000 | -109.89924 | 39214 ft | 457 kts | 85° |
| 2026-05-07 07:38 | 37.01350 | -109.82027 | 39228 ft | 458 kts | 85° |
| 2026-05-07 07:38 | 37.01698 | -109.74059 | 39233 ft | 460 kts | 85° |
| 2026-05-07 07:39 | 37.02041 | -109.66059 | 39229 ft | 461 kts | 85° |
| 2026-05-07 07:39 | 37.02379 | -109.58054 | 39234 ft | 462 kts | 85° |
| 2026-05-07 07:40 | 37.02715 | -109.49996 | 39233 ft | 463 kts | 85° |
| 2026-05-07 07:40 | 37.03042 | -109.41994 | 39235 ft | 464 kts | 85° |
| 2026-05-07 07:41 | 37.03366 | -109.33925 | 39243 ft | 464 kts | 85° |
| 2026-05-07 07:41 | 37.03685 | -109.25856 | 39246 ft | 465 kts | 85° |
| 2026-05-07 07:42 | 37.03998 | -109.17774 | 39250 ft | 465 kts | 85° |
| 2026-05-07 07:42 | 37.04307 | -109.09675 | 39244 ft | 466 kts | 85° |
| 2026-05-07 07:43 | 37.04613 | -109.01582 | 39249 ft | 466 kts | 85° |
| 2026-05-07 07:43 | 37.04911 | -108.93470 | 39245 ft | 467 kts | 85° |
| 2026-05-07 07:44 | 37.05207 | -108.85355 | 39252 ft | 467 kts | 86° |
| 2026-05-07 07:44 | 37.05570 | -108.77244 | 39246 ft | 466 kts | 82° |
| 2026-05-07 07:45 | 37.06257 | -108.70547 | 39255 ft | 466 kts | 79° |
| 2026-05-07 07:45 | 37.07385 | -108.61219 | 39248 ft | 467 kts | 79° |
| 2026-05-07 07:46 | 37.08317 | -108.53194 | 39250 ft | 467 kts | 80° |
| 2026-05-07 07:46 | 37.09066 | -108.46445 | 39212 ft | 468 kts | 80° |
| 2026-05-07 07:47 | 37.09940 | -108.38392 | 39243 ft | 467 kts | 81° |
| 2026-05-07 07:47 | 37.10875 | -108.30312 | 39000 ft | 473 kts | 76° |
| 2026-05-07 07:47 | 37.11746 | -108.26327 | 38417 ft | 474 kts | 66° |
| 2026-05-07 07:48 | 37.13258 | -108.22675 | 37230 ft | 474 kts | 51° |
| 2026-05-07 07:48 | 37.15575 | -108.19746 | 35590 ft | 476 kts | 30° |
| 2026-05-07 07:48 | 37.18601 | -108.18175 | 33933 ft | 472 kts | 6° |
| 2026-05-07 07:48 | 37.21814 | -108.18508 | 32578 ft | 465 kts | 339° |
| 2026-05-07 07:49 | 37.24427 | -108.20806 | 31468 ft | 464 kts | 309° |
| 2026-05-07 07:49 | 37.25670 | -108.24522 | 30269 ft | 474 kts | 278° |
| 2026-05-07 07:49 | 37.25082 | -108.28609 | 28945 ft | 491 kts | 245° |
| 2026-05-07 07:49 | 37.22725 | -108.31729 | 27691 ft | 505 kts | 211° |
| 2026-05-07 07:50 | 37.19352 | -108.32761 | 26867 ft | 504 kts | 176° |
| 2026-05-07 07:50 | 37.16021 | -108.31925 | 27073 ft | 473 kts | 160° |
| 2026-05-07 07:50 | 37.13174 | -108.30121 | 27246 ft | 448 kts | 143° |
| 2026-05-07 07:50 | 37.10921 | -108.27579 | 27327 ft | 427 kts | 128° |
| 2026-05-07 07:51 | 37.09289 | -108.24530 | 27480 ft | 420 kts | 113° |
| 2026-05-07 07:51 | 37.08239 | -108.21136 | 28052 ft | 416 kts | 102° |
| 2026-05-07 07:51 | 37.07673 | -108.17623 | 28871 ft | 407 kts | 91° |
| 2026-05-07 07:51 | 37.07738 | -108.14141 | 29676 ft | 396 kts | 78° |
| 2026-05-07 07:52 | 37.08138 | -108.10730 | 30377 ft | 395 kts | 77° |
| 2026-05-07 07:52 | 37.08581 | -108.07327 | 30879 ft | 398 kts | 76° |
| 2026-05-07 07:52 | 37.09041 | -108.03902 | 31295 ft | 403 kts | 76° |
| 2026-05-07 07:52 | 37.09506 | -108.00415 | 31712 ft | 408 kts | 77° |
| 2026-05-07 07:53 | 37.09968 | -107.96891 | 32130 ft | 412 kts | 77° |
| 2026-05-07 07:53 | 37.10421 | -107.93378 | 32476 ft | 417 kts | 77° |
| 2026-05-07 07:53 | 37.10878 | -107.89771 | 32823 ft | 421 kts | 77° |
| 2026-05-07 07:53 | 37.11333 | -107.86138 | 33216 ft | 424 kts | 77° |
| 2026-05-07 07:54 | 37.11787 | -107.82475 | 33615 ft | 426 kts | 77° |
| 2026-05-07 07:54 | 37.12240 | -107.78800 | 33973 ft | 429 kts | 77° |
| 2026-05-07 07:54 | 37.12695 | -107.75098 | 34300 ft | 431 kts | 77° |
| 2026-05-07 07:54 | 37.13154 | -107.71367 | 34603 ft | 435 kts | 77° |
| 2026-05-07 07:55 | 37.13617 | -107.67601 | 34876 ft | 439 kts | 77° |
| 2026-05-07 07:55 | 37.14082 | -107.63805 | 35116 ft | 443 kts | 77° |
| 2026-05-07 07:55 | 37.14549 | -107.59975 | 35376 ft | 446 kts | 77° |
| 2026-05-07 07:55 | 37.15019 | -107.56112 | 35629 ft | 449 kts | 78° |
| 2026-05-07 07:56 | 37.15490 | -107.52233 | 35865 ft | 452 kts | 78° |
| 2026-05-07 07:56 | 37.15966 | -107.48315 | 36073 ft | 456 kts | 78° |
| 2026-05-07 07:56 | 37.16443 | -107.44373 | 36280 ft | 459 kts | 78° |
| 2026-05-07 07:56 | 37.16921 | -107.40401 | 36481 ft | 462 kts | 78° |
| 2026-05-07 07:57 | 37.17399 | -107.36407 | 36682 ft | 465 kts | 78° |
| 2026-05-07 07:57 | 37.17878 | -107.32395 | 36950 ft | 465 kts | 78° |
| 2026-05-07 07:57 | 37.18354 | -107.28387 | 37258 ft | 464 kts | 78° |
| 2026-05-07 07:57 | 37.18829 | -107.24379 | 37510 ft | 465 kts | 79° |
| 2026-05-07 07:58 | 37.19306 | -107.20363 | 37706 ft | 467 kts | 79° |
| 2026-05-07 07:58 | 37.19784 | -107.16325 | 37851 ft | 470 kts | 79° |
| 2026-05-07 07:58 | 37.20264 | -107.12261 | 38014 ft | 472 kts | 79° |
| 2026-05-07 07:58 | 37.20743 | -107.08188 | 38254 ft | 472 kts | 79° |
| 2026-05-07 07:59 | 37.21221 | -107.04113 | 38499 ft | 472 kts | 79° |
| 2026-05-07 07:59 | 37.21697 | -107.00039 | 38695 ft | 473 kts | 79° |
| 2026-05-07 07:59 | 37.22175 | -106.95942 | 38818 ft | 476 kts | 79° |
| 2026-05-07 07:59 | 37.22652 | -106.91833 | 39001 ft | 476 kts | 79° |
| 2026-05-07 08:00 | 37.23128 | -106.87718 | 39253 ft | 476 kts | 79° |
| 2026-05-07 08:00 | 37.24077 | -106.79498 | 39329 ft | 481 kts | 79° |
| 2026-05-07 08:01 | 37.25023 | -106.71218 | 39358 ft | 478 kts | 79° |
| 2026-05-07 08:01 | 37.25960 | -106.62977 | 39355 ft | 476 kts | 79° |
| 2026-05-07 08:02 | 37.26890 | -106.54761 | 39350 ft | 474 kts | 79° |
| 2026-05-07 08:02 | 37.27809 | -106.46573 | 39345 ft | 473 kts | 79° |
| 2026-05-07 08:03 | 37.28722 | -106.38388 | 39336 ft | 473 kts | 79° |
| 2026-05-07 08:03 | 37.29630 | -106.30204 | 39334 ft | 474 kts | 79° |
| 2026-05-07 08:04 | 37.30537 | -106.21984 | 39308 ft | 475 kts | 79° |
| 2026-05-07 08:04 | 37.31440 | -106.13754 | 39286 ft | 476 kts | 79° |
| 2026-05-07 08:05 | 37.32337 | -106.05501 | 39283 ft | 477 kts | 79° |
| 2026-05-07 08:05 | 37.33232 | -105.97240 | 39279 ft | 477 kts | 79° |
| 2026-05-07 08:06 | 37.34122 | -105.88961 | 39277 ft | 479 kts | 79° |
| 2026-05-07 08:06 | 37.35007 | -105.80656 | 39280 ft | 480 kts | 80° |
| 2026-05-07 08:07 | 37.35655 | -105.72331 | 39277 ft | 482 kts | 83° |
| 2026-05-07 08:07 | 37.36163 | -105.63861 | 39277 ft | 483 kts | 83° |
| 2026-05-07 08:08 | 37.36679 | -105.55498 | 39300 ft | 483 kts | 83° |
| 2026-05-07 08:08 | 37.37228 | -105.47066 | 39313 ft | 484 kts | 83° |
| 2026-05-07 08:09 | 37.37789 | -105.38570 | 39328 ft | 485 kts | 83° |
| 2026-05-07 08:09 | 37.38337 | -105.30173 | 39344 ft | 486 kts | 83° |
| 2026-05-07 08:10 | 37.38885 | -105.21705 | 39352 ft | 487 kts | 83° |
| 2026-05-07 08:10 | 37.39428 | -105.13212 | 39355 ft | 487 kts | 83° |
| 2026-05-07 08:11 | 37.39961 | -105.04718 | 39354 ft | 487 kts | 83° |
| 2026-05-07 08:11 | 37.40489 | -104.96202 | 39336 ft | 489 kts | 83° |
| 2026-05-07 08:12 | 37.41014 | -104.87675 | 39307 ft | 490 kts | 83° |
| 2026-05-07 08:12 | 37.41533 | -104.79127 | 39280 ft | 490 kts | 84° |
| 2026-05-07 08:13 | 37.42044 | -104.70590 | 39242 ft | 490 kts | 83° |
| 2026-05-07 08:13 | 37.42551 | -104.62046 | 39209 ft | 489 kts | 84° |
| 2026-05-07 08:14 | 37.43052 | -104.53517 | 39202 ft | 488 kts | 84° |
| 2026-05-07 08:14 | 37.43542 | -104.45012 | 39195 ft | 487 kts | 84° |
| 2026-05-07 08:15 | 37.44025 | -104.36531 | 39201 ft | 486 kts | 84° |
| 2026-05-07 08:15 | 37.44504 | -104.28056 | 39204 ft | 485 kts | 84° |
| 2026-05-07 08:16 | 37.44973 | -104.19600 | 39202 ft | 484 kts | 84° |
| 2026-05-07 08:16 | 37.45433 | -104.11157 | 39203 ft | 483 kts | 84° |
| 2026-05-07 08:17 | 37.45888 | -104.02714 | 39207 ft | 483 kts | 84° |
| 2026-05-07 08:17 | 37.46339 | -103.94278 | 39198 ft | 484 kts | 84° |
| 2026-05-07 08:18 | 37.46784 | -103.85875 | 39210 ft | 485 kts | 84° |
| 2026-05-07 08:18 | 37.47225 | -103.77389 | 39208 ft | 487 kts | 84° |
| 2026-05-07 08:19 | 37.47663 | -103.68870 | 39202 ft | 489 kts | 84° |
| 2026-05-07 08:19 | 37.48095 | -103.60322 | 39189 ft | 490 kts | 85° |
| 2026-05-07 08:20 | 37.48523 | -103.51739 | 39193 ft | 492 kts | 85° |
| 2026-05-07 08:20 | 37.48946 | -103.43135 | 39185 ft | 493 kts | 85° |
| 2026-05-07 08:21 | 37.49365 | -103.34494 | 39194 ft | 495 kts | 85° |
| 2026-05-07 08:21 | 37.49779 | -103.25805 | 39182 ft | 497 kts | 85° |
| 2026-05-07 08:22 | 37.50184 | -103.17156 | 39180 ft | 498 kts | 86° |
| 2026-05-07 08:22 | 37.50588 | -103.08447 | 39186 ft | 499 kts | 86° |
| 2026-05-07 08:23 | 37.50987 | -102.99706 | 39201 ft | 500 kts | 86° |
| 2026-05-07 08:23 | 37.51381 | -102.90943 | 39197 ft | 502 kts | 86° |
| 2026-05-07 08:24 | 37.51771 | -102.82161 | 39195 ft | 502 kts | 86° |
| 2026-05-07 08:24 | 37.51979 | -102.73353 | 39191 ft | 503 kts | 91° |
| 2026-05-07 08:25 | 37.51721 | -102.64544 | 39193 ft | 504 kts | 93° |
| 2026-05-07 08:25 | 37.51400 | -102.55724 | 39202 ft | 504 kts | 92° |
| 2026-05-07 08:26 | 37.51010 | -102.42482 | 39193 ft | 504 kts | 92° |
| 2026-05-07 08:26 | 37.50769 | -102.33648 | 39193 ft | 504 kts | 92° |
| 2026-05-07 08:27 | 37.50522 | -102.24882 | 39200 ft | 504 kts | 92° |
| 2026-05-07 08:27 | 37.50265 | -102.16057 | 39191 ft | 504 kts | 92° |
| 2026-05-07 08:28 | 37.50000 | -102.07240 | 39193 ft | 504 kts | 92° |
| 2026-05-07 08:28 | 37.49729 | -101.98411 | 39194 ft | 503 kts | 92° |
| 2026-05-07 08:29 | 37.49453 | -101.89605 | 39183 ft | 504 kts | 93° |
| 2026-05-07 08:29 | 37.49169 | -101.80780 | 39198 ft | 504 kts | 93° |
| 2026-05-07 08:30 | 37.48882 | -101.71979 | 39182 ft | 505 kts | 93° |
| 2026-05-07 08:30 | 37.48585 | -101.63137 | 39183 ft | 506 kts | 93° |
| 2026-05-07 08:31 | 37.48312 | -101.54283 | 39182 ft | 507 kts | 93° |
| 2026-05-07 08:31 | 37.48077 | -101.45412 | 39183 ft | 508 kts | 93° |
| 2026-05-07 08:32 | 37.47838 | -101.36507 | 39181 ft | 509 kts | 93° |
| 2026-05-07 08:32 | 37.47586 | -101.27583 | 39186 ft | 511 kts | 94° |
| 2026-05-07 08:33 | 37.47323 | -101.18632 | 39183 ft | 513 kts | 94° |
| 2026-05-07 08:33 | 37.47099 | -101.11172 | 39189 ft | 514 kts | 94° |
| 2026-05-07 08:34 | 37.46821 | -101.02165 | 39182 ft | 516 kts | 94° |
| 2026-05-07 08:34 | 37.46535 | -100.93128 | 39197 ft | 517 kts | 95° |
| 2026-05-07 08:35 | 37.46243 | -100.84062 | 39187 ft | 519 kts | 95° |
| 2026-05-07 08:35 | 37.45943 | -100.74978 | 39198 ft | 520 kts | 95° |
| 2026-05-07 08:36 | 37.45636 | -100.65885 | 39193 ft | 520 kts | 95° |
| 2026-05-07 08:36 | 37.45322 | -100.56777 | 39190 ft | 521 kts | 95° |
| 2026-05-07 08:37 | 37.44999 | -100.47662 | 39181 ft | 521 kts | 95° |
| 2026-05-07 08:37 | 37.44670 | -100.38554 | 39183 ft | 520 kts | 95° |
| 2026-05-07 08:38 | 37.44339 | -100.29529 | 39185 ft | 520 kts | 95° |
| 2026-05-07 08:38 | 37.43997 | -100.20447 | 39180 ft | 519 kts | 96° |
| 2026-05-07 08:39 | 37.43648 | -100.11374 | 39186 ft | 519 kts | 96° |
| 2026-05-07 08:39 | 37.43291 | -100.02306 | 39183 ft | 518 kts | 96° |
| 2026-05-07 08:40 | 37.42931 | -99.93254 | 39174 ft | 518 kts | 96° |
| 2026-05-07 08:40 | 37.42563 | -99.84199 | 39188 ft | 519 kts | 96° |
| 2026-05-07 08:41 | 37.42185 | -99.75129 | 39200 ft | 520 kts | 97° |
| 2026-05-07 08:41 | 37.41803 | -99.66035 | 39184 ft | 522 kts | 97° |
| 2026-05-07 08:42 | 37.41410 | -99.56913 | 39184 ft | 523 kts | 97° |
| 2026-05-07 08:42 | 37.41009 | -99.47764 | 39180 ft | 524 kts | 97° |
| 2026-05-07 08:43 | 37.40599 | -99.38598 | 39190 ft | 526 kts | 97° |
| 2026-05-07 08:43 | 37.40181 | -99.29380 | 39184 ft | 529 kts | 97° |
| 2026-05-07 08:44 | 37.39759 | -99.20197 | 39191 ft | 531 kts | 98° |
| 2026-05-07 08:44 | 37.39322 | -99.10920 | 39180 ft | 532 kts | 98° |
| 2026-05-07 08:45 | 37.38878 | -99.01626 | 39176 ft | 533 kts | 98° |
| 2026-05-07 08:45 | 37.38429 | -98.92303 | 39174 ft | 534 kts | 98° |
| 2026-05-07 08:46 | 37.37968 | -98.82965 | 39175 ft | 535 kts | 98° |
| 2026-05-07 08:46 | 37.37500 | -98.73633 | 39177 ft | 535 kts | 99° |
| 2026-05-07 08:47 | 37.37025 | -98.64286 | 39170 ft | 535 kts | 99° |
| 2026-05-07 08:47 | 37.36544 | -98.54950 | 39173 ft | 535 kts | 99° |
| 2026-05-07 08:48 | 37.36056 | -98.45637 | 39176 ft | 535 kts | 99° |
| 2026-05-07 08:48 | 37.35558 | -98.36302 | 39175 ft | 535 kts | 99° |
| 2026-05-07 08:49 | 37.35055 | -98.26968 | 39174 ft | 535 kts | 99° |
| 2026-05-07 08:49 | 37.34544 | -98.17638 | 39169 ft | 535 kts | 99° |
| 2026-05-07 08:50 | 37.34025 | -98.08303 | 39166 ft | 535 kts | 99° |
| 2026-05-07 08:50 | 37.33498 | -97.98973 | 39167 ft | 535 kts | 99° |
| 2026-05-07 08:51 | 37.32965 | -97.89640 | 39155 ft | 536 kts | 100° |
| 2026-05-07 08:51 | 37.32426 | -97.80299 | 39170 ft | 536 kts | 100° |
| 2026-05-07 08:52 | 37.31874 | -97.70957 | 39169 ft | 537 kts | 100° |
| 2026-05-07 08:52 | 37.31319 | -97.61593 | 39168 ft | 538 kts | 100° |
| 2026-05-07 08:53 | 37.30756 | -97.52213 | 39165 ft | 540 kts | 100° |
| 2026-05-07 08:53 | 37.30184 | -97.42807 | 39169 ft | 541 kts | 101° |
| 2026-05-07 08:54 | 37.29327 | -97.33518 | 39170 ft | 537 kts | 107° |
| 2026-05-07 08:54 | 37.27964 | -97.24317 | 39167 ft | 536 kts | 109° |
| 2026-05-07 08:55 | 37.26537 | -97.15114 | 39165 ft | 538 kts | 109° |
| 2026-05-07 08:55 | 37.25161 | -97.05864 | 39172 ft | 540 kts | 108° |
| 2026-05-07 08:56 | 37.23817 | -96.96576 | 39177 ft | 541 kts | 108° |
| 2026-05-07 08:56 | 37.22472 | -96.87273 | 39178 ft | 542 kts | 108° |
| 2026-05-07 08:57 | 37.21113 | -96.77956 | 39174 ft | 543 kts | 108° |
| 2026-05-07 08:57 | 37.19741 | -96.68633 | 39173 ft | 544 kts | 109° |
| 2026-05-07 08:58 | 37.18362 | -96.59309 | 39164 ft | 544 kts | 109° |
| 2026-05-07 08:58 | 37.16974 | -96.49990 | 39163 ft | 544 kts | 109° |
| 2026-05-07 08:59 | 37.15579 | -96.40670 | 39168 ft | 544 kts | 109° |
| 2026-05-07 08:59 | 37.14174 | -96.31346 | 39168 ft | 545 kts | 109° |
| 2026-05-07 09:00 | 37.12769 | -96.22068 | 39154 ft | 544 kts | 109° |
| 2026-05-07 09:00 | 37.11351 | -96.12763 | 39161 ft | 544 kts | 109° |
| 2026-05-07 09:01 | 37.09927 | -96.03443 | 39151 ft | 544 kts | 109° |
| 2026-05-07 09:01 | 37.08494 | -95.94128 | 39147 ft | 544 kts | 110° |
| 2026-05-07 09:02 | 37.07051 | -95.84821 | 39143 ft | 545 kts | 110° |
| 2026-05-07 09:02 | 37.05602 | -95.75513 | 39145 ft | 545 kts | 110° |
| 2026-05-07 09:03 | 37.04147 | -95.66200 | 39152 ft | 545 kts | 110° |
| 2026-05-07 09:03 | 37.02680 | -95.56873 | 39150 ft | 546 kts | 110° |
| 2026-05-07 09:04 | 37.01209 | -95.47574 | 39151 ft | 546 kts | 110° |
| 2026-05-07 09:04 | 36.99726 | -95.38249 | 39147 ft | 547 kts | 111° |
| 2026-05-07 09:05 | 36.98233 | -95.28912 | 39146 ft | 548 kts | 111° |
| 2026-05-07 09:05 | 36.96733 | -95.19571 | 39145 ft | 548 kts | 111° |
| 2026-05-07 09:06 | 36.95232 | -95.10267 | 39141 ft | 548 kts | 111° |
| 2026-05-07 09:06 | 36.93716 | -95.00931 | 39148 ft | 548 kts | 111° |
| 2026-05-07 09:07 | 36.92185 | -94.91539 | 39152 ft | 548 kts | 111° |
| 2026-05-07 09:07 | 36.90607 | -94.81917 | 39148 ft | 549 kts | 111° |
| 2026-05-07 09:08 | 36.89120 | -94.72896 | 39153 ft | 549 kts | 111° |
| 2026-05-07 09:08 | 36.87571 | -94.63538 | 39150 ft | 550 kts | 111° |
| 2026-05-07 09:09 | 36.86016 | -94.54185 | 39145 ft | 550 kts | 110° |
| 2026-05-07 09:09 | 36.84449 | -94.44818 | 39149 ft | 550 kts | 111° |
| 2026-05-07 09:10 | 36.82383 | -94.35724 | 39155 ft | 540 kts | 119° |
| 2026-05-07 09:10 | 36.79932 | -94.26915 | 39141 ft | 539 kts | 120° |
| 2026-05-07 09:11 | 36.77462 | -94.18065 | 39151 ft | 541 kts | 119° |
| 2026-05-07 09:11 | 36.75053 | -94.09170 | 39148 ft | 542 kts | 119° |
| 2026-05-07 09:12 | 36.72668 | -94.00260 | 39146 ft | 543 kts | 119° |
| 2026-05-07 09:12 | 36.70276 | -93.91346 | 39143 ft | 544 kts | 119° |
| 2026-05-07 09:13 | 36.67860 | -93.82377 | 39151 ft | 545 kts | 119° |
| 2026-05-07 09:13 | 36.65431 | -93.73426 | 39149 ft | 546 kts | 119° |
| 2026-05-07 09:14 | 36.62992 | -93.64464 | 39144 ft | 547 kts | 119° |
| 2026-05-07 09:14 | 36.60542 | -93.55485 | 39127 ft | 548 kts | 120° |
| 2026-05-07 09:15 | 36.58503 | -93.48036 | 39129 ft | 547 kts | 120° |
| 2026-05-07 09:15 | 36.55635 | -93.37588 | 39129 ft | 547 kts | 120° |
| 2026-05-07 09:16 | 36.53171 | -93.28647 | 39130 ft | 547 kts | 120° |
| 2026-05-07 09:16 | 36.50700 | -93.19712 | 39136 ft | 547 kts | 120° |
| 2026-05-07 09:17 | 36.48219 | -93.10776 | 39138 ft | 547 kts | 120° |
| 2026-05-07 09:17 | 36.45736 | -93.01857 | 39133 ft | 546 kts | 120° |
| 2026-05-07 09:18 | 36.43248 | -92.92950 | 39140 ft | 546 kts | 120° |
| 2026-05-07 09:18 | 36.40756 | -92.84058 | 39136 ft | 545 kts | 120° |
| 2026-05-07 09:19 | 36.38261 | -92.75178 | 39128 ft | 544 kts | 120° |
| 2026-05-07 09:19 | 36.35765 | -92.66323 | 39140 ft | 543 kts | 120° |
| 2026-05-07 09:20 | 36.33260 | -92.57474 | 39126 ft | 544 kts | 120° |
| 2026-05-07 09:20 | 36.30756 | -92.48634 | 39137 ft | 544 kts | 120° |
| 2026-05-07 09:21 | 36.29080 | -92.41031 | 39143 ft | 556 kts | 109° |
| 2026-05-07 09:21 | 36.27697 | -92.31574 | 39138 ft | 559 kts | 108° |
| 2026-05-07 09:22 | 36.26370 | -92.22081 | 39114 ft | 559 kts | 108° |
| 2026-05-07 09:22 | 36.24988 | -92.12617 | 39124 ft | 558 kts | 109° |
| 2026-05-07 09:23 | 36.23560 | -92.03180 | 39116 ft | 558 kts | 109° |
| 2026-05-07 09:23 | 36.22116 | -91.93745 | 39117 ft | 558 kts | 109° |
| 2026-05-07 09:24 | 36.20667 | -91.84313 | 39106 ft | 557 kts | 109° |
| 2026-05-07 09:24 | 36.19214 | -91.74882 | 39105 ft | 557 kts | 109° |
| 2026-05-07 09:25 | 36.17761 | -91.65471 | 39114 ft | 557 kts | 109° |
| 2026-05-07 09:25 | 36.16296 | -91.56055 | 39106 ft | 557 kts | 109° |
| 2026-05-07 09:26 | 36.14825 | -91.46660 | 39111 ft | 556 kts | 109° |
| 2026-05-07 09:26 | 36.13350 | -91.37276 | 39117 ft | 555 kts | 109° |
| 2026-05-07 09:27 | 36.11872 | -91.27939 | 39111 ft | 555 kts | 109° |
| 2026-05-07 09:28 | 36.09628 | -91.13840 | 39122 ft | 556 kts | 109° |
| 2026-05-07 09:28 | 36.08124 | -91.04461 | 39119 ft | 556 kts | 109° |
| 2026-05-07 09:29 | 36.06614 | -90.95077 | 39122 ft | 556 kts | 110° |
| 2026-05-07 09:29 | 36.05094 | -90.85705 | 39121 ft | 556 kts | 109° |
| 2026-05-07 09:30 | 36.03577 | -90.76383 | 39123 ft | 556 kts | 109° |
| 2026-05-07 09:30 | 36.02043 | -90.67008 | 39123 ft | 557 kts | 109° |
| 2026-05-07 09:31 | 36.00501 | -90.57631 | 39108 ft | 558 kts | 109° |
| 2026-05-07 09:31 | 35.98909 | -90.48002 | 39113 ft | 558 kts | 109° |
| 2026-05-07 09:32 | 35.97397 | -90.38894 | 39109 ft | 558 kts | 109° |
| 2026-05-07 09:32 | 35.95829 | -90.29501 | 39099 ft | 558 kts | 109° |
| 2026-05-07 09:33 | 35.94255 | -90.20132 | 39099 ft | 558 kts | 109° |
| 2026-05-07 09:33 | 35.92667 | -90.10700 | 39094 ft | 558 kts | 109° |
| 2026-05-07 09:34 | 35.91081 | -90.01344 | 39090 ft | 558 kts | 109° |
| 2026-05-07 09:34 | 35.89485 | -89.91982 | 39086 ft | 558 kts | 110° |
| 2026-05-07 09:35 | 35.87888 | -89.82660 | 39082 ft | 558 kts | 110° |
| 2026-05-07 09:35 | 35.86279 | -89.73305 | 39082 ft | 558 kts | 110° |
| 2026-05-07 09:36 | 35.84664 | -89.63963 | 39083 ft | 557 kts | 110° |
| 2026-05-07 09:36 | 35.83044 | -89.54630 | 39082 ft | 557 kts | 110° |
| 2026-05-07 09:37 | 35.81415 | -89.45301 | 39077 ft | 556 kts | 110° |
| 2026-05-07 09:37 | 35.79781 | -89.35986 | 39075 ft | 556 kts | 110° |
| 2026-05-07 09:38 | 35.78141 | -89.26673 | 39076 ft | 556 kts | 110° |
| 2026-05-07 09:38 | 35.77319 | -89.22025 | 38939 ft | 557 kts | 110° |
| 2026-05-07 09:38 | 35.76489 | -89.17357 | 38388 ft | 559 kts | 110° |
| 2026-05-07 09:38 | 35.75660 | -89.12689 | 37822 ft | 557 kts | 110° |
| 2026-05-07 09:39 | 35.74832 | -89.08025 | 37220 ft | 556 kts | 110° |
| 2026-05-07 09:39 | 35.74007 | -89.03392 | 36616 ft | 555 kts | 110° |
| 2026-05-07 09:39 | 35.73176 | -88.98743 | 35981 ft | 554 kts | 110° |
| 2026-05-07 09:39 | 35.72348 | -88.94115 | 35299 ft | 554 kts | 111° |
| 2026-05-07 09:40 | 35.71514 | -88.89480 | 34574 ft | 555 kts | 111° |
| 2026-05-07 09:40 | 35.70721 | -88.84868 | 33818 ft | 559 kts | 107° |
| 2026-05-07 09:40 | 35.70291 | -88.80074 | 33045 ft | 568 kts | 98° |
| 2026-05-07 09:40 | 35.70394 | -88.75211 | 32442 ft | 571 kts | 88° |
| 2026-05-07 09:41 | 35.70826 | -88.70352 | 31623 ft | 572 kts | 86° |
| 2026-05-07 09:41 | 35.71328 | -88.65492 | 30705 ft | 574 kts | 85° |
| 2026-05-07 09:41 | 35.71838 | -88.60615 | 29979 ft | 572 kts | 85° |
| 2026-05-07 09:41 | 35.72318 | -88.55785 | 29294 ft | 566 kts | 86° |
| 2026-05-07 09:42 | 35.72765 | -88.50995 | 28564 ft | 561 kts | 86° |
| 2026-05-07 09:42 | 35.73184 | -88.46242 | 27866 ft | 556 kts | 86° |
| 2026-05-07 09:42 | 35.73589 | -88.41535 | 27159 ft | 551 kts | 86° |
| 2026-05-07 09:42 | 35.73987 | -88.36864 | 26454 ft | 546 kts | 86° |
| 2026-05-07 09:43 | 35.74382 | -88.32245 | 25742 ft | 540 kts | 86° |
| 2026-05-07 09:43 | 35.74775 | -88.27680 | 25039 ft | 530 kts | 86° |
| 2026-05-07 09:43 | 35.75159 | -88.23224 | 24340 ft | 519 kts | 86° |
| 2026-05-07 09:43 | 35.75532 | -88.18853 | 23662 ft | 508 kts | 87° |
| 2026-05-07 09:44 | 35.75746 | -88.14572 | 23155 ft | 492 kts | 92° |
| 2026-05-07 09:44 | 35.75818 | -88.10414 | 22570 ft | 484 kts | 93° |
| 2026-05-07 09:44 | 35.75844 | -88.06265 | 21942 ft | 485 kts | 94° |
| 2026-05-07 09:44 | 35.75862 | -88.02117 | 21239 ft | 485 kts | 94° |
| 2026-05-07 09:45 | 35.75891 | -87.97971 | 20544 ft | 483 kts | 94° |
| 2026-05-07 09:45 | 35.75932 | -87.93846 | 19846 ft | 480 kts | 93° |
| 2026-05-07 09:45 | 35.75982 | -87.89754 | 19143 ft | 477 kts | 93° |
| 2026-05-07 09:45 | 35.76036 | -87.85679 | 18452 ft | 473 kts | 93° |
| 2026-05-07 09:46 | 35.76089 | -87.81643 | 17756 ft | 470 kts | 93° |
| 2026-05-07 09:46 | 35.76139 | -87.77641 | 17077 ft | 465 kts | 93° |
| 2026-05-07 09:46 | 35.76186 | -87.73730 | 16425 ft | 460 kts | 93° |
| 2026-05-07 09:46 | 35.76232 | -87.69812 | 15753 ft | 456 kts | 91° |
| 2026-05-07 09:47 | 35.76682 | -87.65998 | 15291 ft | 448 kts | 72° |
| 2026-05-07 09:47 | 35.77777 | -87.62434 | 14716 ft | 441 kts | 66° |
| 2026-05-07 09:47 | 35.78941 | -87.58954 | 14077 ft | 437 kts | 66° |
| 2026-05-07 09:47 | 35.80081 | -87.55505 | 13430 ft | 433 kts | 67° |
| 2026-05-07 09:48 | 35.81170 | -87.52077 | 12816 ft | 427 kts | 68° |
| 2026-05-07 09:48 | 35.82222 | -87.48682 | 12211 ft | 421 kts | 68° |
| 2026-05-07 09:48 | 35.83340 | -87.45378 | 11663 ft | 413 kts | 63° |
| 2026-05-07 09:48 | 35.84579 | -87.42242 | 11193 ft | 402 kts | 61° |
| 2026-05-07 09:49 | 35.85807 | -87.39189 | 10724 ft | 393 kts | 62° |
| 2026-05-07 09:49 | 35.86963 | -87.36183 | 10254 ft | 384 kts | 68° |
| 2026-05-07 09:49 | 35.87420 | -87.32990 | 9949 ft | 372 kts | 91° |
| 2026-05-07 09:49 | 35.87141 | -87.29933 | 9961 ft | 348 kts | 102° |
| 2026-05-07 09:50 | 35.86669 | -87.27088 | 9900 ft | 330 kts | 104° |
| 2026-05-07 09:50 | 35.86188 | -87.24394 | 9782 ft | 312 kts | 104° |
| 2026-05-07 09:50 | 35.85738 | -87.21843 | 9464 ft | 300 kts | 104° |
| 2026-05-07 09:50 | 35.85307 | -87.19348 | 8986 ft | 295 kts | 103° |
| 2026-05-07 09:51 | 35.84896 | -87.16865 | 8288 ft | 298 kts | 102° |
| 2026-05-07 09:51 | 35.84486 | -87.14404 | 7932 ft | 290 kts | 102° |
| 2026-05-07 09:51 | 35.84084 | -87.11978 | 7635 ft | 288 kts | 102° |
| 2026-05-07 09:51 | 35.83685 | -87.09564 | 7376 ft | 288 kts | 102° |
| 2026-05-07 09:52 | 35.83284 | -87.07147 | 7126 ft | 288 kts | 102° |
| 2026-05-07 09:52 | 35.82809 | -87.04745 | 7056 ft | 289 kts | 107° |
| 2026-05-07 09:52 | 35.82193 | -87.02389 | 7031 ft | 288 kts | 109° |
| 2026-05-07 09:52 | 35.81565 | -87.00054 | 7026 ft | 287 kts | 108° |
| 2026-05-07 09:53 | 35.80947 | -86.97712 | 7024 ft | 287 kts | 108° |
| 2026-05-07 09:53 | 35.80336 | -86.95367 | 7022 ft | 288 kts | 108° |
| 2026-05-07 09:53 | 35.79795 | -86.92981 | 6847 ft | 291 kts | 101° |
| 2026-05-07 09:53 | 35.79600 | -86.90516 | 6601 ft | 289 kts | 89° |
| 2026-05-07 09:54 | 35.79790 | -86.88107 | 6361 ft | 285 kts | 78° |
| 2026-05-07 09:54 | 35.80342 | -86.85800 | 6127 ft | 279 kts | 67° |
| 2026-05-07 09:54 | 35.81217 | -86.83682 | 5903 ft | 275 kts | 57° |
| 2026-05-07 09:54 | 35.82358 | -86.81810 | 5650 ft | 272 kts | 46° |
| 2026-05-07 09:55 | 35.83729 | -86.80234 | 5440 ft | 268 kts | 37° |
| 2026-05-07 09:55 | 35.85288 | -86.78977 | 5227 ft | 268 kts | 27° |
| 2026-05-07 09:55 | 35.86990 | -86.78064 | 5003 ft | 267 kts | 18° |
| 2026-05-07 09:55 | 35.88762 | -86.77376 | 4730 ft | 267 kts | 17° |
| 2026-05-07 09:56 | 35.90528 | -86.76684 | 4454 ft | 265 kts | 17° |
| 2026-05-07 09:56 | 35.92280 | -86.75989 | 4180 ft | 264 kts | 17° |
| 2026-05-07 09:56 | 35.93990 | -86.75310 | 3858 ft | 253 kts | 18° |
| 2026-05-07 09:56 | 35.95607 | -86.74666 | 3535 ft | 233 kts | 18° |
| 2026-05-07 09:57 | 35.97064 | -86.74086 | 3263 ft | 207 kts | 18° |
| 2026-05-07 09:57 | 35.98378 | -86.73563 | 2993 ft | 190 kts | 18° |
| 2026-05-07 09:57 | 35.99574 | -86.73085 | 2762 ft | 171 kts | 18° |
| 2026-05-07 09:57 | 36.00660 | -86.72653 | 2565 ft | 158 kts | 18° |
| 2026-05-07 09:58 | 36.01668 | -86.72252 | 2362 ft | 146 kts | 18° |
| 2026-05-07 09:58 | 36.02617 | -86.71874 | 2204 ft | 140 kts | 18° |
| 2026-05-07 09:58 | 36.03491 | -86.71527 | 2045 ft | 128 kts | 18° |
| 2026-05-07 09:58 | 36.04332 | -86.71192 | 1868 ft | 127 kts | 17° |
| 2026-05-07 09:59 | 36.05176 | -86.70856 | 1707 ft | 128 kts | 17° |
| 2026-05-07 09:59 | 36.06018 | -86.70520 | 1532 ft | 128 kts | 18° |
| 2026-05-07 09:59 | 36.06861 | -86.70184 | 1361 ft | 127 kts | 18° |
| 2026-05-07 09:59 | 36.07702 | -86.69848 | 1193 ft | 127 kts | 18° |
| 2026-05-07 10:00 | 36.08546 | -86.69516 | 1022 ft | 128 kts | 17° |
| 2026-05-07 10:00 | 36.09393 | -86.69168 | 825 ft | 128 kts | 17° |
| 2026-05-07 10:00 | 36.10237 | -86.68835 | 635 ft | 127 kts | 18° |
| 2026-05-07 10:00 | 36.11027 | -86.68519 | 573 ft | 107 kts | 18° |
| 2026-05-07 10:01 | 36.11592 | -86.68293 | 576 ft | 62 kts | 17° |
| 2026-05-07 10:01 | 36.11928 | -86.68157 | 574 ft | 31 kts | 19° |
| 2026-05-07 10:01 | 36.12031 | -86.67993 | 575 ft | 20 kts | 63° |
| 2026-05-07 10:01 | 36.12829 | -86.66887 | 568 ft | 0 kts | 255° |